createdAt,value
2024-05-09T00:00:35.514Z,62.24
2024-05-09T00:01:41.450Z,63.78
2024-05-09T00:02:43.797Z,65.38
2024-05-09T00:03:46.781Z,65.24
2024-05-09T00:04:49.344Z,64.12
2024-05-09T00:05:51.817Z,62.05
2024-05-09T00:06:54.186Z,58.68
2024-05-09T00:07:56.513Z,54.38
2024-05-09T00:08:58.893Z,52.30
2024-05-09T00:10:01.214Z,51.60
2024-05-09T00:11:03.980Z,51.37
2024-05-09T00:12:06.842Z,51.63
2024-05-09T00:13:11.482Z,51.84
2024-05-09T00:14:13.915Z,52.12
2024-05-09T00:15:16.533Z,52.57
2024-05-09T00:16:18.874Z,52.97
2024-05-09T00:17:21.253Z,53.46
2024-05-09T00:18:24.062Z,54.03
2024-05-09T00:19:27.637Z,54.34
2024-05-09T00:20:37.498Z,54.85
2024-05-09T00:21:43.827Z,55.30
2024-05-09T00:22:46.264Z,56.36
2024-05-09T00:23:48.726Z,56.77
2024-05-09T00:24:51.101Z,56.63
2024-05-09T00:25:53.548Z,56.76
2024-05-09T00:26:55.966Z,56.69
2024-05-09T00:27:58.404Z,56.41
2024-05-09T00:29:00.788Z,56.81
2024-05-09T00:30:04.244Z,57.16
2024-05-09T00:31:06.739Z,57.30
2024-05-09T00:32:09.124Z,57.63
2024-05-09T00:33:12.056Z,57.91
2024-05-09T00:34:14.917Z,57.93
2024-05-09T00:35:17.433Z,58.04
2024-05-09T00:36:19.769Z,58.08
2024-05-09T00:37:22.198Z,58.23
2024-05-09T00:38:24.548Z,58.49
2024-05-09T00:39:27.152Z,58.55
2024-05-09T00:40:39.570Z,58.60
2024-05-09T00:41:44.455Z,58.68
2024-05-09T00:42:48.264Z,58.77
2024-05-09T00:43:50.690Z,59.03
2024-05-09T00:44:53.099Z,59.14
2024-05-09T00:45:57.394Z,59.29
2024-05-09T00:47:00.381Z,59.60
2024-05-09T00:48:06.764Z,59.71
2024-05-09T00:49:10.755Z,60.07
2024-05-09T00:50:19.264Z,60.05
2024-05-09T00:51:25.519Z,59.88
2024-05-09T00:52:29.111Z,60.04
2024-05-09T00:53:31.845Z,60.11
2024-05-09T00:54:34.674Z,60.19
2024-05-09T00:55:38.399Z,60.22
2024-05-09T00:56:42.295Z,60.21
2024-05-09T00:57:45.682Z,60.30
2024-05-09T00:58:49.845Z,60.48
2024-05-09T00:59:52.761Z,60.46
2024-05-09T01:00:56.982Z,60.45
2024-05-09T01:02:01.292Z,60.62
2024-05-09T01:03:03.917Z,60.88
2024-05-09T01:04:07.377Z,61.05
2024-05-09T01:05:10.168Z,61.36
2024-05-09T01:06:12.978Z,61.64
2024-05-09T01:07:15.345Z,61.72
2024-05-09T01:08:18.825Z,62.65
2024-05-09T01:09:21.337Z,65.49
2024-05-09T01:10:28.223Z,66.12
2024-05-09T01:11:38.983Z,65.35
2024-05-09T01:12:41.485Z,62.28
2024-05-09T01:13:44.701Z,58.38
2024-05-09T01:14:47.190Z,54.39
2024-05-09T01:15:50.035Z,52.48
2024-05-09T01:16:52.589Z,51.77
2024-05-09T01:17:56.549Z,51.83
2024-05-09T01:19:00.245Z,52.75
2024-05-09T01:20:04.237Z,53.45
2024-05-09T01:21:10.237Z,54.29
2024-05-09T01:22:12.789Z,54.82
2024-05-09T01:23:16.430Z,55.52
2024-05-09T01:24:19.079Z,56.14
2024-05-09T01:25:21.503Z,56.53
2024-05-09T01:26:23.905Z,56.90
2024-05-09T01:27:26.276Z,57.18
2024-05-09T01:28:28.591Z,57.53
2024-05-09T01:29:31.020Z,57.64
2024-05-09T01:30:36.100Z,57.80
2024-05-09T01:31:40.014Z,58.22
2024-05-09T01:32:42.543Z,58.62
2024-05-09T01:33:45.248Z,58.98
2024-05-09T01:34:47.752Z,59.23
2024-05-09T01:35:50.046Z,59.18
2024-05-09T01:36:52.516Z,59.26
2024-05-09T01:37:54.948Z,59.25
2024-05-09T01:38:57.481Z,59.51
2024-05-09T01:39:59.805Z,59.81
2024-05-09T01:41:02.257Z,60.04
2024-05-09T01:42:05.558Z,60.05
2024-05-09T01:43:11.817Z,60.11
2024-05-09T01:44:14.741Z,60.11
2024-05-09T01:45:18.394Z,60.25
2024-05-09T01:46:20.778Z,60.55
2024-05-09T01:47:23.298Z,61.12
2024-05-09T01:48:25.988Z,61.81
2024-05-09T01:49:28.515Z,63.42
2024-05-09T01:51:36.156Z,68.43
2024-05-09T01:52:38.812Z,66.41
2024-05-09T01:53:41.119Z,63.79
2024-05-09T01:54:43.638Z,61.57
2024-05-09T01:55:46.156Z,58.62
2024-05-09T01:56:48.504Z,55.30
2024-05-09T01:57:50.917Z,53.87
2024-05-09T01:58:53.243Z,53.25
2024-05-09T01:59:55.743Z,53.63
2024-05-09T02:00:58.336Z,54.06
2024-05-09T02:02:00.986Z,54.92
2024-05-09T02:03:03.642Z,55.30
2024-05-09T02:04:06.728Z,55.46
2024-05-09T02:05:09.554Z,56.01
2024-05-09T02:06:12.219Z,56.12
2024-05-09T02:07:14.587Z,56.11
2024-05-09T02:08:19.351Z,56.11
2024-05-09T02:09:22.205Z,56.12
2024-05-09T02:10:31.763Z,56.50
2024-05-09T02:11:43.577Z,56.60
2024-05-09T02:12:45.986Z,57.13
2024-05-09T02:13:48.429Z,57.95
2024-05-09T02:14:52.398Z,58.11
2024-05-09T02:15:54.746Z,57.98
2024-05-09T02:16:57.072Z,58.24
2024-05-09T02:17:59.743Z,58.42
2024-05-09T02:19:02.278Z,58.82
2024-05-09T02:20:05.983Z,58.62
2024-05-09T02:21:09.758Z,58.97
2024-05-09T02:22:12.181Z,59.37
2024-05-09T02:23:14.738Z,59.90
2024-05-09T02:24:17.066Z,60.12
2024-05-09T02:25:21.697Z,60.51
2024-05-09T02:26:24.009Z,60.98
2024-05-09T02:27:26.478Z,61.55
2024-05-09T02:28:28.771Z,62.85
2024-05-09T02:29:31.396Z,66.40
2024-05-09T02:30:39.678Z,67.31
2024-05-09T02:31:45.315Z,66.14
2024-05-09T02:32:48.066Z,63.16
2024-05-09T02:33:50.903Z,59.01
2024-05-09T02:34:53.415Z,55.12
2024-05-09T02:35:55.851Z,53.49
2024-05-09T02:36:58.162Z,52.90
2024-05-09T02:38:00.941Z,53.08
2024-05-09T02:39:03.595Z,53.59
2024-05-09T02:40:09.130Z,54.36
2024-05-09T02:41:13.998Z,54.93
2024-05-09T02:42:16.369Z,55.96
2024-05-09T02:43:18.685Z,56.23
2024-05-09T02:44:21.407Z,57.08
2024-05-09T02:45:24.751Z,57.71
2024-05-09T02:46:27.102Z,58.25
2024-05-09T02:47:29.623Z,58.61
2024-05-09T02:48:32.226Z,59.10
2024-05-09T02:49:34.819Z,59.70
2024-05-09T02:50:39.551Z,60.11
2024-05-09T02:51:42.739Z,60.12
2024-05-09T02:52:45.150Z,60.34
2024-05-09T02:53:47.602Z,60.82
2024-05-09T02:54:50.093Z,61.46
2024-05-09T02:55:52.444Z,61.83
2024-05-09T02:56:54.882Z,62.94
2024-05-09T02:57:57.181Z,66.38
2024-05-09T02:58:59.596Z,67.36
2024-05-09T03:00:02.046Z,65.99
2024-05-09T03:01:04.544Z,63.61
2024-05-09T03:02:07.138Z,61.32
2024-05-09T03:03:15.088Z,58.12
2024-05-09T03:04:18.686Z,54.88
2024-05-09T03:05:21.251Z,53.20
2024-05-09T03:06:23.598Z,53.48
2024-05-09T03:07:25.874Z,54.25
2024-05-09T03:08:28.479Z,54.84
2024-05-09T03:09:30.906Z,55.63
2024-05-09T03:10:36.574Z,56.29
2024-05-09T03:11:40.906Z,56.89
2024-05-09T03:12:43.450Z,57.71
2024-05-09T03:13:45.979Z,58.39
2024-05-09T03:14:51.034Z,58.65
2024-05-09T03:15:53.449Z,58.80
2024-05-09T03:16:55.873Z,59.41
2024-05-09T03:17:59.965Z,59.78
2024-05-09T03:19:02.622Z,60.14
2024-05-09T03:20:09.126Z,60.51
2024-05-09T03:21:14.058Z,60.69
2024-05-09T03:22:16.503Z,61.10
2024-05-09T03:23:19.010Z,61.49
2024-05-09T03:24:21.374Z,62.42
2024-05-09T03:25:23.900Z,65.38
2024-05-09T03:26:26.228Z,66.75
2024-05-09T03:27:28.662Z,65.59
2024-05-09T03:28:30.986Z,63.26
2024-05-09T03:29:33.463Z,60.27
2024-05-09T03:30:41.241Z,56.21
2024-05-09T03:31:45.554Z,54.52
2024-05-09T03:32:48.356Z,53.91
2024-05-09T03:33:50.915Z,54.57
2024-05-09T03:34:53.350Z,55.27
2024-05-09T03:35:55.642Z,55.74
2024-05-09T03:36:57.930Z,56.21
2024-05-09T03:38:00.363Z,56.80
2024-05-09T03:39:02.792Z,57.22
2024-05-09T03:40:11.765Z,57.88
2024-05-09T03:41:20.313Z,58.10
2024-05-09T03:42:22.691Z,59.30
2024-05-09T03:43:24.953Z,60.19
2024-05-09T03:44:27.433Z,60.54
2024-05-09T03:45:29.904Z,60.61
2024-05-09T03:46:32.443Z,60.87
2024-05-09T03:47:35.683Z,61.19
2024-05-09T03:48:38.406Z,61.39
2024-05-09T03:49:41.024Z,61.88
2024-05-09T03:50:43.595Z,63.05
2024-05-09T03:51:46.745Z,66.69
2024-05-09T03:52:49.077Z,67.26
2024-05-09T03:53:51.474Z,65.21
2024-05-09T03:54:53.813Z,62.82
2024-05-09T03:55:56.849Z,59.40
2024-05-09T03:56:59.267Z,55.43
2024-05-09T03:58:01.597Z,53.49
2024-05-09T03:59:04.190Z,52.87
2024-05-09T04:00:14.494Z,52.67
2024-05-09T04:01:20.402Z,52.74
2024-05-09T04:02:23.096Z,53.62
2024-05-09T04:03:25.811Z,54.25
2024-05-09T04:04:28.439Z,54.85
2024-05-09T04:05:32.664Z,55.03
2024-05-09T04:06:35.289Z,55.28
2024-05-09T04:07:38.742Z,55.78
2024-05-09T04:08:41.339Z,56.21
2024-05-09T04:09:43.869Z,56.48
2024-05-09T04:10:46.496Z,57.07
2024-05-09T04:11:48.980Z,57.82
2024-05-09T04:12:53.121Z,58.57
2024-05-09T04:13:55.498Z,58.99
2024-05-09T04:14:58.035Z,59.14
2024-05-09T04:16:00.307Z,59.42
2024-05-09T04:17:02.691Z,59.66
2024-05-09T04:18:05.407Z,59.81
2024-05-09T04:19:07.994Z,60.13
2024-05-09T04:20:21.053Z,61.01
2024-05-09T04:21:31.460Z,60.77
2024-05-09T04:22:33.848Z,61.81
2024-05-09T04:23:36.329Z,62.80
2024-05-09T04:24:38.756Z,66.39
2024-05-09T04:25:45.777Z,66.08
2024-05-09T04:26:48.347Z,64.04
2024-05-09T04:27:55.778Z,58.70
2024-05-09T04:28:58.330Z,54.21
2024-05-09T04:30:00.824Z,51.13
2024-05-09T04:31:03.187Z,50.69
2024-05-09T04:32:06.271Z,50.53
2024-05-09T04:33:11.843Z,51.19
2024-05-09T04:34:16.246Z,51.61
2024-05-09T04:35:21.052Z,51.89
2024-05-09T04:36:23.455Z,52.52
2024-05-09T04:37:26.231Z,52.36
2024-05-09T04:38:29.775Z,52.67
2024-05-09T04:39:32.066Z,52.71
2024-05-09T04:40:36.766Z,52.82
2024-05-09T04:41:40.105Z,52.96
2024-05-09T04:42:42.768Z,53.39
2024-05-09T04:43:45.058Z,53.95
2024-05-09T04:44:48.220Z,53.98
2024-05-09T04:45:51.113Z,54.46
2024-05-09T04:46:53.584Z,55.07
2024-05-09T04:47:56.378Z,54.37
2024-05-09T04:48:58.928Z,54.54
2024-05-09T04:50:01.648Z,54.43
2024-05-09T04:51:04.838Z,55.08
2024-05-09T04:52:07.614Z,54.25
2024-05-09T04:53:11.266Z,54.76
2024-05-09T04:54:25.991Z,54.96
2024-05-09T04:55:36.926Z,54.93
2024-05-09T04:56:39.608Z,54.93
2024-05-09T04:57:42.163Z,55.03
2024-05-09T04:58:44.503Z,54.99
2024-05-09T04:59:46.894Z,55.29
2024-05-09T05:00:49.284Z,54.95
2024-05-09T05:01:51.920Z,55.08
2024-05-09T05:02:54.415Z,54.99
2024-05-09T05:03:57.247Z,55.27
2024-05-09T05:04:59.911Z,55.27
2024-05-09T05:06:02.616Z,54.76
2024-05-09T05:07:05.672Z,54.98
2024-05-09T05:08:15.023Z,55.17
2024-05-09T05:09:17.869Z,55.30
2024-05-09T05:10:25.488Z,54.99
2024-05-09T05:11:32.128Z,54.61
2024-05-09T05:12:52.272Z,54.89
2024-05-09T05:13:54.771Z,54.32
2024-05-09T05:14:57.331Z,54.36
2024-05-09T05:16:00.441Z,54.61
2024-05-09T05:17:02.921Z,54.35
2024-05-09T05:18:06.075Z,54.41
2024-05-09T05:19:12.671Z,53.96
2024-05-09T05:20:24.468Z,54.22
2024-05-09T05:21:33.547Z,53.17
2024-05-09T05:22:36.016Z,53.45
2024-05-09T05:23:40.986Z,53.46
2024-05-09T05:24:43.446Z,52.80
2024-05-09T05:25:47.538Z,52.50
2024-05-09T05:26:49.940Z,51.97
2024-05-09T05:27:52.607Z,52.92
2024-05-09T05:28:54.981Z,52.09
2024-05-09T05:29:57.579Z,52.26
2024-05-09T05:31:00.416Z,52.46
2024-05-09T05:32:02.760Z,52.44
2024-05-09T05:33:07.146Z,52.48
2024-05-09T05:34:09.761Z,52.45
2024-05-09T05:35:12.375Z,52.62
2024-05-09T06:41:33.723Z,40.61
2024-05-09T06:42:36.248Z,41.10
2024-05-09T06:43:38.725Z,40.96
2024-05-09T06:44:41.131Z,40.87
2024-05-09T06:45:43.651Z,40.16
2024-05-09T06:46:46.702Z,39.12
2024-05-09T06:47:49.441Z,39.67
2024-05-09T06:48:53.032Z,39.60
2024-05-09T06:49:55.804Z,39.55
2024-05-09T06:50:58.748Z,39.10
2024-05-09T06:52:01.066Z,39.21
2024-05-09T06:53:03.435Z,39.05
2024-05-09T06:54:09.495Z,39.12
2024-05-09T06:55:11.792Z,38.07
2024-05-09T06:56:14.719Z,38.21
2024-05-09T06:57:17.004Z,37.90
2024-05-09T06:58:19.466Z,38.55
2024-05-09T06:59:21.946Z,38.21
2024-05-09T07:00:30.858Z,38.65
2024-05-09T07:01:40.834Z,38.43
2024-05-09T07:02:43.291Z,37.84
2024-05-09T07:03:45.760Z,37.80
2024-05-09T07:04:48.204Z,37.52
2024-05-09T07:05:51.079Z,37.63
2024-05-09T07:06:53.483Z,37.42
2024-05-09T07:07:55.911Z,37.77
2024-05-09T07:08:58.450Z,37.56
2024-05-09T07:10:00.812Z,36.62
2024-05-09T07:11:04.144Z,36.91
2024-05-09T07:12:07.436Z,37.50
2024-05-09T07:13:14.796Z,37.00
2024-05-09T07:14:17.605Z,36.57
2024-05-09T07:15:19.998Z,36.42
2024-05-09T07:16:22.464Z,35.86
2024-05-09T07:17:24.945Z,35.72
2024-05-09T07:18:27.732Z,34.76
2024-05-09T07:19:30.482Z,34.63
2024-05-09T07:20:34.968Z,34.61
2024-05-09T07:21:37.861Z,34.84
2024-05-09T07:22:40.221Z,35.53
2024-05-09T07:23:45.203Z,35.83
2024-05-09T07:24:48.530Z,35.71
2024-05-09T07:25:51.024Z,36.06
2024-05-09T07:26:53.506Z,35.08
2024-05-09T07:27:55.929Z,35.54
2024-05-09T07:28:58.253Z,35.82
2024-05-09T07:30:00.750Z,36.05
2024-05-09T07:31:03.140Z,35.63
2024-05-09T07:32:06.554Z,35.60
2024-05-09T07:33:09.164Z,36.16
2024-05-09T07:34:13.289Z,35.54
2024-05-09T07:35:15.835Z,35.51
2024-05-09T07:36:18.240Z,35.32
2024-05-09T07:37:20.670Z,34.75
2024-05-09T07:38:23.304Z,34.90
2024-05-09T07:39:25.667Z,34.49
2024-05-09T07:40:34.829Z,35.03
2024-05-09T07:41:39.205Z,34.90
2024-05-09T07:42:41.597Z,34.55
2024-05-09T07:43:44.656Z,34.50
2024-05-09T07:44:46.941Z,34.49
2024-05-09T07:45:53.632Z,34.46
2024-05-09T07:50:53.480Z,34.63
2024-05-09T07:52:23.899Z,35.09
2024-05-09T07:53:21.695Z,35.23
2024-05-09T07:53:37.983Z,34.95
2024-05-09T07:54:39.513Z,35.28
2024-05-09T07:55:42.090Z,34.18
2024-05-09T07:56:44.796Z,33.97
2024-05-09T07:57:47.258Z,34.08
2024-05-09T07:58:51.838Z,34.32
2024-05-09T07:59:54.648Z,34.57
2024-05-09T08:00:57.149Z,34.38
2024-05-09T08:01:59.821Z,34.16
2024-05-09T08:03:02.287Z,34.12
2024-05-09T08:04:04.773Z,34.38
2024-05-09T08:05:07.401Z,33.64
2024-05-09T08:06:09.944Z,33.75
2024-05-09T08:07:12.348Z,33.87
2024-05-09T08:08:14.671Z,33.94
2024-05-09T08:09:20.971Z,33.96
2024-05-09T08:10:28.560Z,33.04
2024-05-09T08:11:33.194Z,33.59
2024-05-09T08:12:35.705Z,33.85
2024-05-09T08:13:38.429Z,33.56
2024-05-09T08:14:40.819Z,32.05
2024-05-09T08:15:43.377Z,33.42
2024-05-09T08:16:45.690Z,33.30
2024-05-09T08:17:48.044Z,32.84
2024-05-09T08:18:50.719Z,32.47
2024-05-09T08:19:53.339Z,32.37
2024-05-09T08:20:55.882Z,32.11
2024-05-09T08:21:58.253Z,33.07
2024-05-09T08:23:00.639Z,32.69
2024-05-09T08:24:02.920Z,32.88
2024-05-09T08:25:06.064Z,32.70
2024-05-09T08:26:08.624Z,31.67
2024-05-09T08:27:10.887Z,32.09
2024-05-09T08:28:13.449Z,31.39
2024-05-09T08:29:16.148Z,32.48
2024-05-09T08:30:24.888Z,32.32
2024-05-09T08:31:32.414Z,32.36
2024-05-09T08:32:35.472Z,31.91
2024-05-09T08:33:38.267Z,31.84
2024-05-09T08:34:41.432Z,31.51
2024-05-09T08:35:43.818Z,30.89
2024-05-09T08:36:46.373Z,31.07
2024-05-09T08:37:50.044Z,29.80
2024-05-09T08:38:52.685Z,30.22
2024-05-09T08:39:55.095Z,30.25
2024-05-09T08:40:57.529Z,30.09
2024-05-09T08:42:02.793Z,29.81
2024-05-09T08:43:11.380Z,29.94
2024-05-09T08:44:15.277Z,30.17
2024-05-09T08:45:18.866Z,29.47
2024-05-09T08:46:21.482Z,29.12
2024-05-09T08:47:24.776Z,28.76
2024-05-09T08:48:27.376Z,27.91
2024-05-09T08:49:31.084Z,28.27
2024-05-09T08:50:38.830Z,28.89
2024-05-09T08:51:43.668Z,29.12
2024-05-09T08:52:46.092Z,28.91
2024-05-09T08:53:48.467Z,28.41
2024-05-09T08:54:51.244Z,27.92
2024-05-09T08:55:55.482Z,28.29
2024-05-09T08:56:58.811Z,28.49
2024-05-09T08:58:04.288Z,28.82
2024-05-09T08:59:08.962Z,29.11
2024-05-09T09:00:15.111Z,29.51
2024-05-09T09:01:21.468Z,29.33
2024-05-09T09:02:24.245Z,29.23
2024-05-09T09:03:29.527Z,29.00
2024-05-09T09:04:36.325Z,27.64
2024-05-09T09:05:41.064Z,28.41
2024-05-09T09:06:44.969Z,28.89
2024-05-09T09:07:48.466Z,28.12
2024-05-09T09:08:51.504Z,27.98
2024-05-09T09:09:55.157Z,27.22
2024-05-09T09:10:59.360Z,27.41
2024-05-09T09:12:01.952Z,27.35
2024-05-09T09:13:07.147Z,26.52
2024-05-09T09:14:09.614Z,26.60
2024-05-09T09:15:11.937Z,27.17
2024-05-09T09:16:14.473Z,27.35
2024-05-09T09:17:17.936Z,27.30
2024-05-09T09:18:20.562Z,27.74
2024-05-09T09:19:24.089Z,28.01
2024-05-09T09:20:35.332Z,27.59
2024-05-09T09:21:39.199Z,27.69
2024-05-09T09:22:41.484Z,27.60
2024-05-09T09:23:44.211Z,27.99
2024-05-09T09:24:46.726Z,26.69
2024-05-09T09:25:49.298Z,27.86
2024-05-09T09:26:51.772Z,27.48
2024-05-09T09:27:54.123Z,26.33
2024-05-09T09:29:01.557Z,25.41
2024-05-09T09:30:05.617Z,26.33
2024-05-09T09:31:09.675Z,26.80
2024-05-09T09:32:12.236Z,27.15
2024-05-09T09:33:14.734Z,26.79
2024-05-09T09:34:17.408Z,25.88
2024-05-09T09:35:20.026Z,26.09
2024-05-09T09:36:22.536Z,26.24
2024-05-09T09:37:30.146Z,26.19
2024-05-09T09:38:32.752Z,26.59
2024-05-09T09:39:41.892Z,26.43
2024-05-09T09:40:49.530Z,26.34
2024-05-09T09:41:53.262Z,26.44
2024-05-09T09:42:58.747Z,25.90
2024-05-09T09:44:02.480Z,25.42
2024-05-09T09:45:05.988Z,25.36
2024-05-09T09:46:12.444Z,25.68
2024-05-09T09:47:16.616Z,25.54
2024-05-09T09:48:20.651Z,26.20
2024-05-09T09:49:27.152Z,25.74
2024-05-09T09:50:34.381Z,26.15
2024-05-09T09:51:43.490Z,25.84
2024-05-09T09:52:47.300Z,26.41
2024-05-09T09:53:53.270Z,25.84
2024-05-09T09:54:57.977Z,24.93
2024-05-09T09:56:02.662Z,24.49
2024-05-09T09:57:05.607Z,25.51
2024-05-09T09:58:10.827Z,25.39
2024-05-09T09:59:15.505Z,25.19
2024-05-09T10:00:24.467Z,25.40
2024-05-09T10:01:34.811Z,24.27
2024-05-09T10:02:37.325Z,23.84
2024-05-09T10:03:40.042Z,24.60
2024-05-09T10:04:42.649Z,23.70
2024-05-09T10:05:47.277Z,23.73
2024-05-09T10:06:55.243Z,23.62
2024-05-09T10:07:59.225Z,24.65
2024-05-09T10:09:02.288Z,24.84
2024-05-09T10:10:07.044Z,24.15
2024-05-09T10:11:09.725Z,24.58
2024-05-09T10:12:14.423Z,23.78
2024-05-09T10:13:16.938Z,24.26
2024-05-09T10:14:22.841Z,24.22
2024-05-09T10:15:25.268Z,24.82
2024-05-09T10:16:31.779Z,23.64
2024-05-09T10:17:34.832Z,24.40
2024-05-09T10:18:41.430Z,24.30
2024-05-09T10:19:44.778Z,24.17
2024-05-09T10:20:49.330Z,23.90
2024-05-09T10:21:51.783Z,24.45
2024-05-09T10:22:54.310Z,25.12
2024-05-09T10:24:03.005Z,25.00
2024-05-09T10:25:07.935Z,25.21
2024-05-09T10:26:10.294Z,25.23
2024-05-09T10:27:12.617Z,25.22
2024-05-09T10:28:15.051Z,25.22
2024-05-09T10:29:19.643Z,24.56
2024-05-09T10:30:29.809Z,24.33
2024-05-09T10:31:40.016Z,24.42
2024-05-09T10:32:42.732Z,23.36
2024-05-09T10:33:51.931Z,23.94
2024-05-09T10:35:12.455Z,24.16
2024-05-09T10:36:19.676Z,24.26
2024-05-09T10:37:22.869Z,23.68
2024-05-09T10:38:25.940Z,24.07
2024-05-09T10:39:35.385Z,24.16
2024-05-09T10:40:39.100Z,23.78
2024-05-09T10:41:41.601Z,24.03
2024-05-09T10:42:44.349Z,23.29
2024-05-09T10:43:47.641Z,23.28
2024-05-09T10:44:50.197Z,24.61
2024-05-09T10:45:52.769Z,27.79
2024-05-09T10:46:55.920Z,26.03
2024-05-09T10:47:58.590Z,25.46
2024-05-09T10:49:04.212Z,25.13
2024-05-09T10:50:18.021Z,24.49
2024-05-09T10:51:25.519Z,26.15
2024-05-09T10:52:27.972Z,25.47
2024-05-09T10:53:31.272Z,25.54
2024-05-09T10:54:37.856Z,25.38
2024-05-09T10:55:40.180Z,25.47
2024-05-09T10:56:42.765Z,26.02
2024-05-09T10:57:45.178Z,25.59
2024-05-09T10:58:48.006Z,24.88
2024-05-09T10:59:51.154Z,24.18
2024-05-09T11:00:56.496Z,24.15
2024-05-09T11:01:59.593Z,23.77
2024-05-09T11:03:02.530Z,23.52
2024-05-09T11:04:06.131Z,24.10
2024-05-09T11:05:09.163Z,23.83
2024-05-09T11:06:12.212Z,23.69
2024-05-09T11:07:21.410Z,23.17
2024-05-09T11:08:25.021Z,23.27
2024-05-09T11:09:27.630Z,23.27
2024-05-09T11:10:33.979Z,22.70
2024-05-09T11:11:37.071Z,22.96
2024-05-09T11:12:39.642Z,23.19
2024-05-09T11:13:42.593Z,23.63
2024-05-09T11:14:54.968Z,23.86
2024-05-09T11:15:57.384Z,23.87
2024-05-09T11:17:06.005Z,23.64
2024-05-09T11:18:09.277Z,23.83
2024-05-09T11:19:15.429Z,24.00
2024-05-09T11:20:26.426Z,23.70
2024-05-09T11:21:31.877Z,23.91
2024-05-09T11:22:34.346Z,23.78
2024-05-09T11:23:36.701Z,23.93
2024-05-09T11:24:39.213Z,24.43
2024-05-09T11:25:41.763Z,24.74
2024-05-09T11:26:44.044Z,24.77
2024-05-09T11:27:46.443Z,24.36
2024-05-09T11:28:50.188Z,24.36
2024-05-09T11:29:52.570Z,24.79
2024-05-09T11:31:09.210Z,24.98
2024-05-09T11:32:14.926Z,24.77
2024-05-09T11:33:19.656Z,24.99
2024-05-09T11:34:22.174Z,24.80
2024-05-09T11:35:26.522Z,24.71
2024-05-09T11:36:29.018Z,24.33
2024-05-09T11:37:35.290Z,24.35
2024-05-09T11:38:38.432Z,24.72
2024-05-09T11:39:40.826Z,24.52
2024-05-09T11:40:43.350Z,24.58
2024-05-09T11:41:45.949Z,24.68
2024-05-09T11:42:50.822Z,24.55
2024-05-09T11:43:54.798Z,25.11
2024-05-09T11:44:57.406Z,24.91
2024-05-09T11:46:00.654Z,24.97
2024-05-09T11:47:04.469Z,24.63
2024-05-09T11:48:07.373Z,24.30
2024-05-09T11:49:10.323Z,24.36
2024-05-09T11:50:19.591Z,24.22
2024-05-09T11:51:29.470Z,24.39
2024-05-09T11:52:32.094Z,23.37
2024-05-09T11:53:34.567Z,24.25
2024-05-09T11:54:36.995Z,24.04
2024-05-09T11:55:39.440Z,23.70
2024-05-09T11:56:41.771Z,24.04
2024-05-09T11:57:44.117Z,24.18
2024-05-09T11:58:46.432Z,24.16
2024-05-09T11:59:48.864Z,24.59
2024-05-09T12:00:51.401Z,24.48
2024-05-09T12:01:54.001Z,24.35
2024-05-09T12:02:58.769Z,23.68
2024-05-09T12:04:01.692Z,23.89
2024-05-09T12:05:04.742Z,24.41
2024-05-09T12:06:07.295Z,24.12
2024-05-09T12:07:12.733Z,24.06
2024-05-09T12:08:15.314Z,24.18
2024-05-09T12:09:18.121Z,24.46
2024-05-09T12:10:26.045Z,24.67
2024-05-09T12:11:33.708Z,24.39
2024-05-09T12:12:37.239Z,23.93
2024-05-09T12:13:40.446Z,23.93
2024-05-09T12:14:42.930Z,24.23
2024-05-09T12:15:45.387Z,23.88
2024-05-09T12:16:47.869Z,24.14
2024-05-09T12:17:51.080Z,24.27
2024-05-09T12:18:53.610Z,24.06
2024-05-09T12:19:56.109Z,24.13
2024-05-09T12:20:58.628Z,24.02
2024-05-09T12:22:00.973Z,23.93
2024-05-09T12:23:03.395Z,24.20
2024-05-09T12:24:06.011Z,24.13
2024-05-09T12:25:08.703Z,23.86
2024-05-09T12:26:11.688Z,23.44
2024-05-09T12:27:14.049Z,23.39
2024-05-09T12:28:17.196Z,23.43
2024-05-09T12:29:19.667Z,23.50
2024-05-09T12:30:32.642Z,23.42
2024-05-09T12:31:39.864Z,23.50
2024-05-09T12:32:42.333Z,23.09
2024-05-09T12:33:44.801Z,23.08
2024-05-09T12:34:47.319Z,23.60
2024-05-09T12:35:51.088Z,23.51
2024-05-09T12:36:53.777Z,23.20
2024-05-09T12:37:56.554Z,22.76
2024-05-09T12:38:59.081Z,22.81
2024-05-09T12:40:01.447Z,23.41
2024-05-09T12:41:04.118Z,23.67
2024-05-09T12:42:06.655Z,23.21
2024-05-09T12:43:10.520Z,23.66
2024-05-09T12:44:13.768Z,23.72
2024-05-09T12:45:16.190Z,23.14
2024-05-09T12:46:20.285Z,22.98
2024-05-09T12:47:22.823Z,23.05
2024-05-09T12:48:25.472Z,22.99
2024-05-09T12:49:28.217Z,22.99
2024-05-09T12:50:33.358Z,23.19
2024-05-09T12:51:36.910Z,23.54
2024-05-09T12:52:39.391Z,23.40
2024-05-09T12:53:41.757Z,23.59
2024-05-09T12:54:44.161Z,23.29
2024-05-09T12:55:53.595Z,23.05
2024-05-09T12:56:59.994Z,23.20
2024-05-09T12:58:02.438Z,23.31
2024-05-09T12:59:04.928Z,23.31
2024-05-09T13:00:14.183Z,23.27
2024-05-09T13:01:22.633Z,23.16
2024-05-09T13:02:25.253Z,23.43
2024-05-09T13:03:28.001Z,23.70
2024-05-09T13:04:30.635Z,23.67
2024-05-09T13:05:33.479Z,23.75
2024-05-09T13:06:36.215Z,23.63
2024-05-09T13:07:38.632Z,23.37
2024-05-09T13:08:41.284Z,23.34
2024-05-09T13:09:43.651Z,23.22
2024-05-09T13:10:46.513Z,23.47
2024-05-09T13:11:49.018Z,24.06
2024-05-09T13:12:51.589Z,24.28
2024-05-09T13:13:54.000Z,24.13
2024-05-09T13:14:56.365Z,24.13
2024-05-09T13:15:58.835Z,23.82
2024-05-09T13:17:01.404Z,24.00
2024-05-09T13:18:07.754Z,24.28
2024-05-09T13:19:10.323Z,24.01
2024-05-09T13:20:19.001Z,23.86
2024-05-09T13:21:28.701Z,23.63
2024-05-09T13:22:31.202Z,23.91
2024-05-09T13:23:33.575Z,24.00
2024-05-09T13:24:36.048Z,24.22
2024-05-09T13:25:38.471Z,24.29
2024-05-09T13:26:40.951Z,24.01
2024-05-09T13:27:43.320Z,24.23
2024-05-09T13:28:45.625Z,24.49
2024-05-09T13:29:47.887Z,24.04
2024-05-09T13:30:50.208Z,23.70
2024-05-09T13:31:52.773Z,23.59
2024-05-09T13:32:55.855Z,23.55
2024-05-09T13:33:58.457Z,23.59
2024-05-09T13:35:00.992Z,23.55
2024-05-09T13:36:03.476Z,23.45
2024-05-09T13:37:06.024Z,23.47
2024-05-09T13:38:08.508Z,23.69
2024-05-09T13:39:10.923Z,23.68
2024-05-09T13:40:14.532Z,22.79
2024-05-09T13:41:16.979Z,23.20
2024-05-09T13:42:19.282Z,23.09
2024-05-09T13:43:23.354Z,23.44
2024-05-09T13:44:25.927Z,23.52
2024-05-09T13:45:28.362Z,23.86
2024-05-09T13:46:31.733Z,23.98
2024-05-09T13:47:34.534Z,23.77
2024-05-09T13:48:37.206Z,23.77
2024-05-09T13:49:39.693Z,23.59
2024-05-09T13:50:42.461Z,23.48
2024-05-09T13:51:44.787Z,23.55
2024-05-09T13:52:47.188Z,23.83
2024-05-09T13:53:49.580Z,24.11
2024-05-09T13:54:51.873Z,23.73
2024-05-09T13:55:54.242Z,23.86
2024-05-09T13:56:59.268Z,24.02
2024-05-09T13:58:02.172Z,23.95
2024-05-09T13:59:05.683Z,23.82
2024-05-09T14:00:18.228Z,24.01
2024-05-09T14:01:29.576Z,24.19
2024-05-09T14:02:32.534Z,24.12
2024-05-09T14:03:35.272Z,24.15
2024-05-09T14:04:37.779Z,24.08
2024-05-09T14:05:40.347Z,24.04
2024-05-09T14:06:42.853Z,23.92
2024-05-09T14:07:45.344Z,23.71
2024-05-09T14:08:47.867Z,23.52
2024-05-09T14:09:50.234Z,23.95
2024-05-09T14:10:53.450Z,24.32
2024-05-09T14:11:55.949Z,24.22
2024-05-09T14:12:58.317Z,24.25
2024-05-09T14:14:00.683Z,24.46
2024-05-09T14:15:03.147Z,24.37
2024-05-09T14:16:06.658Z,24.24
2024-05-09T14:17:09.232Z,23.86
2024-05-09T14:18:13.879Z,23.65
2024-05-09T14:19:17.404Z,24.14
2024-05-09T14:20:29.976Z,24.04
2024-05-09T14:21:34.399Z,23.89
2024-05-09T14:22:36.811Z,23.93
2024-05-09T14:23:39.208Z,23.35
2024-05-09T14:24:41.810Z,23.80
2024-05-09T14:25:45.981Z,24.02
2024-05-09T14:26:49.611Z,24.20
2024-05-09T14:27:52.031Z,24.19
2024-05-09T14:28:54.710Z,24.34
2024-05-09T14:29:57.278Z,24.62
2024-05-09T14:31:01.134Z,24.85
2024-05-09T14:32:03.914Z,25.02
2024-05-09T14:33:07.499Z,24.80
2024-05-09T14:34:11.074Z,24.91
2024-05-09T14:35:13.835Z,24.90
2024-05-09T14:36:16.338Z,24.82
2024-05-09T14:37:18.687Z,24.78
2024-05-09T14:38:21.155Z,25.04
2024-05-09T14:39:23.438Z,25.10
2024-05-09T14:40:42.745Z,25.36
2024-05-09T14:41:47.331Z,25.30
2024-05-09T14:42:49.785Z,25.03
2024-05-09T14:43:52.255Z,25.34
2024-05-09T14:44:54.530Z,25.46
2024-05-09T14:45:57.140Z,25.50
2024-05-09T14:46:59.890Z,25.42
2024-05-09T14:48:03.358Z,25.26
2024-05-09T14:49:08.042Z,25.60
2024-05-09T14:50:19.541Z,25.35